This is the latest recevied weather packets stored in our database for station/object IW1RID-3. If no packets are shown the sender has not sent any weather packets the latest 10 day(s).
| Time | Temp. | Humidity | Pressure | Rain* | Wind** | Luminosity | Snow |
|---|---|---|---|---|---|---|---|
| 1777810969 | 18.33° C | 60% | 1078.2 hPa | - | - | - | - |
| 1777809764 | 18.89° C | 57% | 1078.4 hPa | - | - | - | - |
| 1777808558 | 18.89° C | 58% | 1078.5 hPa | - | - | - | - |
| 1777807353 | 20° C | 57% | 1078.4 hPa | - | - | - | - |
| 1777806148 | 20.56° C | 56% | 1078.5 hPa | - | - | - | - |
| 1777804944 | 20° C | 57% | 1078.7 hPa | - | - | - | - |
| 1777803739 | 18.89° C | 60% | 1079.3 hPa | - | - | - | - |
| 1777802534 | 18.33° C | 62% | 1079.2 hPa | - | - | - | - |
| 1777801330 | 18.89° C | 60% | 1079.2 hPa | - | - | - | - |
| 1777800125 | 18.33° C | 59% | 1079.2 hPa | - | - | - | - |
| 1777798920 | 18.89° C | 58% | 1078.8 hPa | - | - | - | - |
| 1777797715 | 18.33° C | 59% | 1078.8 hPa | - | - | - | - |
| 1777796511 | 17.78° C | 59% | 1078.9 hPa | - | - | - | - |
| 1777795305 | 17.22° C | 55% | 1078.8 hPa | - | - | - | - |
| 1777794100 | 16.67° C | 48% | 1078.7 hPa | - | - | - | - |
| 1777792893 | 15.56° C | 47% | 1078.5 hPa | - | - | - | - |
| 1777791688 | 14.44° C | 51% | 1078.6 hPa | - | - | - | - |
| 1777790483 | 14.44° C | 48% | 1078.7 hPa | - | - | - | - |
| 1777789279 | 12.78° C | 52% | 1078.6 hPa | - | - | - | - |
| 1777788073 | 12.78° C | 53% | 1078.6 hPa | - | - | - | - |
| 1777786868 | 12.22° C | 54% | 1078.4 hPa | - | - | - | - |
| 1777785664 | 11.67° C | 54% | 1078.7 hPa | - | - | - | - |
| 1777784459 | 11.11° C | 56% | 1078.7 hPa | - | - | - | - |
| 1777783253 | 10.56° C | 56% | 1078.6 hPa | - | - | - | - |
| 1777782049 | 11.11° C | 51% | 1078.4 hPa | - | - | - | - |
* Rain since midnight (hover to see other rain measurements)
** Current wind speed in m/s (hover to see current wind gust speed)